Time;durP1;ratioP1;P1;durP2;ratioP2;P2;SDS_P1;SDS_P2;PMS_P1;PMS_P2;Temp;Humidity;BMP_temperature;BMP_pressure;BME280_temperature;BME280_humidity;BME280_pressure;Samples;Min_cycle;Max_cycle;Signal;HPM_P1;HPM_P2
2024/01/08 00:01:37;;;;;;;10.73;5.03;;;0.10;99.90;;;;;;5040579;28;20508;-61
2024/01/08 00:04:03;;;;;;;9.32;5.32;;;0.10;99.90;;;;;;5028629;28;20057;-60
2024/01/08 00:06:30;;;;;;;8.63;4.82;;;0.10;99.90;;;;;;5041455;28;20052;-61
2024/01/08 00:08:56;;;;;;;8.40;5.18;;;0.10;99.90;;;;;;5039794;28;20086;-61
2024/01/08 00:11:21;;;;;;;8.10;4.30;;;0.10;99.90;;;;;;5045380;28;20115;-61
2024/01/08 00:13:47;;;;;;;7.93;4.60;;;0.00;99.90;;;;;;5006824;28;20064;-61
2024/01/08 00:16:13;;;;;;;7.63;4.75;;;0.10;99.90;;;;;;5044153;28;20045;-61
2024/01/08 00:18:39;;;;;;;10.45;6.38;;;0.10;99.90;;;;;;5031337;28;20428;-61
2024/01/08 00:21:05;;;;;;;9.32;5.10;;;0.10;99.90;;;;;;5047770;28;20040;-61
2024/01/08 00:23:33;;;;;;;10.10;4.80;;;0.10;99.90;;;;;;5042928;28;20370;-61
2024/01/08 00:25:59;;;;;;;9.15;5.25;;;0.10;99.90;;;;;;5042080;28;20044;-61
2024/01/08 00:28:25;;;;;;;8.53;5.27;;;0.10;99.90;;;;;;5044254;28;20044;-61
2024/01/08 00:30:51;;;;;;;9.75;5.18;;;0.10;99.90;;;;;;5038754;28;20045;-61
2024/01/08 00:33:17;;;;;;;7.18;4.47;;;0.10;99.90;;;;;;5041931;28;20056;-61
2024/01/08 00:35:43;;;;;;;8.10;5.07;;;0.10;99.90;;;;;;5043121;28;20397;-61
2024/01/08 00:38:08;;;;;;;8.63;4.88;;;0.10;99.90;;;;;;5044005;28;20420;-61
2024/01/08 00:40:34;;;;;;;8.82;5.47;;;0.10;99.90;;;;;;5018267;28;20064;-61
2024/01/08 00:43:00;;;;;;;8.25;4.72;;;0.10;99.90;;;;;;5041016;28;20045;-60
2024/01/08 00:45:26;;;;;;;9.48;4.70;;;0.00;99.90;;;;;;5026751;28;20550;-61
2024/01/08 00:47:51;;;;;;;8.07;5.35;;;0.00;99.90;;;;;;5040502;28;20151;-61
2024/01/08 00:50:17;;;;;;;8.80;4.90;;;0.10;99.90;;;;;;5044139;28;20506;-61
2024/01/08 00:52:43;;;;;;;7.63;4.97;;;0.10;99.90;;;;;;5026109;28;20524;-61
2024/01/08 00:55:11;;;;;;;8.05;4.57;;;0.10;99.90;;;;;;5042481;28;20047;-61
2024/01/08 00:57:38;;;;;;;7.60;4.75;;;0.10;99.90;;;;;;5044991;28;20548;-61
2024/01/08 01:00:05;;;;;;;7.20;4.40;;;0.10;99.90;;;;;;5024813;28;20048;-61
2024/01/08 01:02:31;;;;;;;7.30;4.30;;;0.10;99.90;;;;;;5023122;28;20123;-61
2024/01/08 01:05:00;;;;;;;7.13;4.35;;;0.10;99.90;;;;;;5023153;28;20162;-61
2024/01/08 01:07:27;;;;;;;6.40;3.88;;;0.10;99.90;;;;;;5043656;28;20072;-61
2024/01/08 01:09:54;;;;;;;7.75;4.22;;;0.10;99.90;;;;;;5041403;28;20044;-61
2024/01/08 01:12:19;;;;;;;9.03;3.93;;;0.10;99.90;;;;;;5026988;28;20470;-61
2024/01/08 01:14:45;;;;;;;8.52;4.63;;;0.10;99.90;;;;;;5027662;28;20086;-61
2024/01/08 01:17:11;;;;;;;7.55;4.68;;;0.10;99.90;;;;;;5036426;28;20056;-61
2024/01/08 01:19:37;;;;;;;8.38;4.78;;;0.10;99.90;;;;;;5043663;28;20044;-61
2024/01/08 01:22:03;;;;;;;9.37;4.63;;;0.10;99.90;;;;;;5028075;28;20440;-61
2024/01/08 01:24:28;;;;;;;8.75;4.40;;;0.10;99.90;;;;;;5040521;28;20052;-61
2024/01/08 01:26:54;;;;;;;8.00;4.28;;;0.10;99.90;;;;;;5046817;28;20300;-61
2024/01/08 01:29:20;;;;;;;9.50;4.63;;;0.10;99.90;;;;;;5026441;28;20048;-61
2024/01/08 01:31:45;;;;;;;7.85;4.50;;;0.00;99.90;;;;;;5045642;28;20102;-61
2024/01/08 01:34:12;;;;;;;8.15;4.22;;;0.00;99.90;;;;;;5008530;28;20391;-59
2024/01/08 01:36:38;;;;;;;9.53;4.70;;;0.00;99.90;;;;;;5034955;28;20041;-61
2024/01/08 01:39:04;;;;;;;7.35;4.38;;;-0.10;99.90;;;;;;5047993;28;20049;-61
2024/01/08 01:41:31;;;;;;;7.75;4.75;;;-0.10;99.90;;;;;;5048565;28;20060;-61
2024/01/08 01:43:57;;;;;;;11.57;5.15;;;-0.10;99.90;;;;;;5036005;28;20038;-61
2024/01/08 01:46:47;;;;;;;7.83;4.67;;;-0.10;99.90;;;;;;5050213;28;20049;-61
2024/01/08 01:49:15;;;;;;;8.87;4.63;;;-0.20;99.90;;;;;;5036698;28;20088;-61
2024/01/08 01:51:43;;;;;;;10.53;5.50;;;-0.20;99.90;;;;;;5046133;28;20076;-61
2024/01/08 01:54:12;;;;;;;18.65;5.78;;;-0.30;99.90;;;;;;5042719;28;20060;-61
2024/01/08 01:56:39;;;;;;;9.03;4.40;;;-0.30;99.90;;;;;;5045231;28;20052;-61
2024/01/08 01:59:06;;;;;;;10.10;4.70;;;-0.40;99.90;;;;;;5030689;28;20056;-61
2024/01/08 02:01:34;;;;;;;9.90;4.33;;;-0.40;99.90;;;;;;5031501;28;20048;-61
2024/01/08 02:04:01;;;;;;;7.43;4.80;;;-0.50;99.90;;;;;;5027332;28;20368;-61
2024/01/08 02:06:28;;;;;;;8.30;4.68;;;-0.50;99.90;;;;;;5044294;28;20251;-61
2024/01/08 02:08:54;;;;;;;11.50;5.60;;;-0.50;99.90;;;;;;5042607;28;20037;-61
2024/01/08 02:11:20;;;;;;;9.03;5.10;;;-0.60;99.90;;;;;;5046868;28;20465;-60
2024/01/08 02:13:47;;;;;;;8.93;4.77;;;-0.60;99.90;;;;;;5030242;28;20493;-61
2024/01/08 02:16:13;;;;;;;8.77;5.10;;;-0.60;99.90;;;;;;5047816;28;20165;-60
2024/01/08 02:18:39;;;;;;;8.30;5.33;;;-0.60;99.90;;;;;;5045146;28;20470;-61
2024/01/08 02:21:05;;;;;;;11.00;5.40;;;-0.60;99.90;;;;;;5045189;28;20183;-61
2024/01/08 02:23:31;;;;;;;8.07;4.80;;;-0.60;99.90;;;;;;5028645;28;20037;-60
2024/01/08 02:25:57;;;;;;;9.03;5.13;;;-0.50;99.90;;;;;;5024798;28;20061;-59
2024/01/08 02:28:23;;;;;;;11.37;5.00;;;-0.50;99.90;;;;;;5046734;28;20118;-61
2024/01/08 02:30:49;;;;;;;10.13;5.17;;;-0.50;99.90;;;;;;5030153;28;20659;-61
2024/01/08 02:33:14;;;;;;;9.00;5.40;;;-0.50;99.90;;;;;;5044113;28;20569;-59
2024/01/08 02:35:41;;;;;;;8.20;4.80;;;-0.40;99.90;;;;;;5024763;28;20415;-61
2024/01/08 02:38:07;;;;;;;10.73;5.57;;;-0.50;99.90;;;;;;5044770;28;20057;-60
2024/01/08 02:40:32;;;;;;;9.70;5.23;;;-0.40;99.90;;;;;;5029408;28;20379;-61
2024/01/08 02:42:58;;;;;;;10.30;6.53;;;-0.40;99.90;;;;;;5043437;28;20048;-60
2024/01/08 02:45:24;;;;;;;7.60;4.93;;;-0.40;99.90;;;;;;5042530;28;20597;-61
2024/01/08 02:47:50;;;;;;;9.70;5.27;;;-0.40;99.90;;;;;;5046432;28;20080;-61
2024/01/08 02:50:15;;;;;;;8.83;5.47;;;-0.40;99.90;;;;;;5045198;28;20048;-61
2024/01/08 02:52:44;;;;;;;10.03;5.77;;;-0.30;99.90;;;;;;5048822;28;20060;-61
2024/01/08 02:55:10;;;;;;;8.73;5.00;;;-0.30;99.90;;;;;;5029661;28;20036;-61
2024/01/08 02:57:36;;;;;;;10.67;5.73;;;-0.30;99.90;;;;;;5043234;28;20077;-61
2024/01/08 03:00:04;;;;;;;9.93;5.87;;;-0.30;99.90;;;;;;5026032;28;20138;-61
2024/01/08 03:02:31;;;;;;;7.77;5.13;;;-0.30;99.90;;;;;;5044417;28;20075;-59
2024/01/08 03:04:59;;;;;;;8.87;5.83;;;-0.30;99.90;;;;;;5042698;28;20049;-61
2024/01/08 03:07:25;;;;;;;10.97;5.53;;;-0.30;99.90;;;;;;5015601;28;20037;-60
2024/01/08 03:09:50;;;;;;;9.03;5.23;;;-0.30;99.90;;;;;;5044064;28;20440;-61
2024/01/08 03:12:16;;;;;;;7.17;4.83;;;-0.30;99.90;;;;;;5037002;28;20612;-61
2024/01/08 03:14:43;;;;;;;11.43;6.43;;;-0.30;99.90;;;;;;5048736;28;20094;-61
2024/01/08 03:17:09;;;;;;;8.77;5.50;;;-0.20;99.90;;;;;;5043646;28;20401;-60
2024/01/08 03:19:35;;;;;;;10.30;5.70;;;-0.20;99.90;;;;;;5039968;28;20040;-61
2024/01/08 03:22:01;;;;;;;9.47;5.53;;;-0.20;99.90;;;;;;5025601;28;20036;-61
2024/01/08 03:24:30;;;;;;;11.30;5.30;;;-0.20;99.90;;;;;;5027816;28;20041;-60
2024/01/08 03:26:56;;;;;;;8.70;5.47;;;-0.20;99.90;;;;;;5043306;28;20517;-61
2024/01/08 03:29:22;;;;;;;8.53;5.43;;;-0.20;99.90;;;;;;5043412;28;20040;-61
2024/01/08 03:31:48;;;;;;;9.63;5.60;;;-0.10;99.90;;;;;;5038948;28;20499;-61
2024/01/08 03:34:14;;;;;;;8.53;5.50;;;0.00;99.90;;;;;;5042425;28;20049;-61
2024/01/08 03:36:50;;;;;;;9.40;5.40;;;-0.10;99.90;;;;;;5044043;28;20504;-61
2024/01/08 03:39:17;;;;;;;12.37;5.80;;;-0.10;99.90;;;;;;5035778;28;20498;-60
2024/01/08 03:41:43;;;;;;;8.73;5.73;;;0.00;99.90;;;;;;5022232;28;20052;-60
2024/01/08 03:44:10;;;;;;;9.20;5.70;;;0.00;99.90;;;;;;5026590;28;20052;-61
2024/01/08 03:46:39;;;;;;;7.90;5.20;;;0.00;99.90;;;;;;5029942;28;20037;-61
2024/01/08 03:49:05;;;;;;;9.97;5.80;;;0.00;99.90;;;;;;5039349;28;20052;-62
2024/01/08 03:51:31;;;;;;;9.18;5.15;;;0.00;99.90;;;;;;5044121;28;20037;-61
2024/01/08 03:53:57;;;;;;;9.15;5.65;;;0.10;99.90;;;;;;5039181;28;20045;-61
2024/01/08 03:56:22;;;;;;;9.60;6.00;;;0.10;99.90;;;;;;5042587;28;20520;-61
2024/01/08 03:58:51;;;;;;;8.32;5.25;;;0.10;99.90;;;;;;5044524;28;20045;-61
2024/01/08 04:01:17;;;;;;;9.68;6.25;;;0.10;99.90;;;;;;5042636;28;20092;-60
2024/01/08 04:03:43;;;;;;;10.03;5.93;;;0.10;99.90;;;;;;5027469;28;20082;-61
2024/01/08 04:06:08;;;;;;;9.27;6.23;;;0.10;99.90;;;;;;5041431;28;20049;-60
2024/01/08 04:08:34;;;;;;;9.83;6.13;;;0.10;99.90;;;;;;5028672;28;20131;-60
2024/01/08 04:11:00;;;;;;;8.37;5.60;;;0.10;99.90;;;;;;5040617;28;20455;-61
2024/01/08 04:13:26;;;;;;;10.70;6.60;;;0.10;99.90;;;;;;5029725;28;20045;-61
2024/01/08 04:15:51;;;;;;;9.83;6.10;;;0.10;99.90;;;;;;5045916;28;20098;-61
2024/01/08 04:18:17;;;;;;;10.03;5.93;;;0.10;99.90;;;;;;5044386;28;20065;-61
2024/01/08 04:20:43;;;;;;;10.57;6.30;;;0.10;99.90;;;;;;5038399;28;20508;-61
2024/01/08 04:23:09;;;;;;;11.00;6.40;;;0.10;99.90;;;;;;5041107;28;20140;-61
2024/01/08 04:25:35;;;;;;;8.48;5.72;;;0.10;99.90;;;;;;5042397;28;20431;-61
2024/01/08 04:28:00;;;;;;;8.38;5.10;;;0.10;99.90;;;;;;5044099;28;20123;-60
2024/01/08 04:30:26;;;;;;;9.30;5.57;;;0.10;99.90;;;;;;5058372;28;20053;-62
2024/01/08 04:32:52;;;;;;;8.77;6.23;;;0.10;99.90;;;;;;5027504;28;20361;-60
2024/01/08 04:35:18;;;;;;;11.33;5.57;;;0.10;99.90;;;;;;5025806;28;20049;-61
2024/01/08 04:37:44;;;;;;;10.75;5.78;;;0.10;99.90;;;;;;5037196;28;20057;-60
2024/01/08 04:40:10;;;;;;;9.27;5.53;;;0.10;99.90;;;;;;5023506;28;20056;-61
2024/01/08 04:42:36;;;;;;;10.90;5.77;;;0.10;99.90;;;;;;5037872;28;20094;-60
2024/01/08 04:45:02;;;;;;;9.77;5.38;;;0.10;99.90;;;;;;5025548;28;20049;-61
2024/01/08 04:47:28;;;;;;;11.53;6.47;;;0.10;99.90;;;;;;5042706;28;20037;-60
2024/01/08 04:49:53;;;;;;;8.43;5.30;;;0.20;99.90;;;;;;5042630;28;20587;-61
2024/01/08 04:52:19;;;;;;;8.93;5.40;;;0.20;99.90;;;;;;5023112;28;20057;-61
2024/01/08 04:54:45;;;;;;;9.63;5.80;;;0.20;99.90;;;;;;5043443;28;20040;-61
2024/01/08 04:57:11;;;;;;;7.45;5.03;;;0.20;99.90;;;;;;5030332;28;20140;-61
2024/01/08 04:59:43;;;;;;;9.98;4.85;;;0.20;99.90;;;;;;5045000;28;20037;-61
2024/01/08 05:02:09;;;;;;;10.05;5.35;;;0.20;99.90;;;;;;5022366;28;20455;-61
2024/01/08 05:04:35;;;;;;;8.07;4.90;;;0.10;99.90;;;;;;5040153;28;20041;-61
2024/01/08 05:07:02;;;;;;;8.07;5.03;;;0.10;99.90;;;;;;5040569;28;20037;-61
2024/01/08 05:09:31;;;;;;;8.53;5.03;;;0.10;99.90;;;;;;5039622;28;20036;-61
2024/01/08 05:11:57;;;;;;;7.53;4.33;;;0.10;99.90;;;;;;5050038;28;20125;-61
2024/01/08 05:14:23;;;;;;;9.90;4.55;;;0.10;99.90;;;;;;5045479;28;20044;-61
2024/01/08 05:16:48;;;;;;;9.50;4.30;;;0.10;99.90;;;;;;5045006;28;20055;-61
2024/01/08 05:19:15;;;;;;;7.43;4.50;;;0.10;99.90;;;;;;5028451;28;20498;-60
2024/01/08 05:21:43;;;;;;;8.90;4.32;;;0.10;99.90;;;;;;5024348;28;20447;-61
2024/01/08 05:24:09;;;;;;;6.27;3.83;;;0.10;99.90;;;;;;5043971;28;20044;-60
2024/01/08 05:26:35;;;;;;;7.40;3.87;;;0.10;99.90;;;;;;5050146;28;20033;-61
2024/01/08 05:29:00;;;;;;;6.57;4.00;;;0.00;99.90;;;;;;5048467;28;20409;-61
2024/01/08 05:31:26;;;;;;;11.07;5.27;;;0.00;99.90;;;;;;5030511;28;20485;-61
2024/01/08 05:33:52;;;;;;;6.27;3.80;;;0.00;99.90;;;;;;5048192;28;20140;-64
2024/01/08 05:36:17;;;;;;;7.77;3.80;;;0.00;99.90;;;;;;5035495;28;20103;-63
2024/01/08 05:38:43;;;;;;;8.60;4.03;;;0.00;99.90;;;;;;5045377;28;20043;-64
2024/01/08 05:41:09;;;;;;;7.13;3.90;;;0.00;99.90;;;;;;5045872;28;20080;-63
2024/01/08 05:43:37;;;;;;;10.47;4.07;;;0.00;99.90;;;;;;5045988;28;20128;-63
2024/01/08 05:46:05;;;;;;;6.17;3.43;;;0.00;99.90;;;;;;5043906;28;20045;-63
2024/01/08 05:48:37;;;;;;;7.40;3.67;;;0.00;99.90;;;;;;5029938;28;20069;-63
2024/01/08 05:51:11;;;;;;;6.73;3.80;;;-0.10;99.90;;;;;;5039415;28;20052;-62
2024/01/08 05:53:37;;;;;;;6.83;3.60;;;-0.10;99.90;;;;;;5025439;28;20049;-63
2024/01/08 05:56:03;;;;;;;6.87;3.60;;;-0.20;99.90;;;;;;5046869;28;20098;-63
2024/01/08 05:58:30;;;;;;;11.50;4.20;;;-0.20;99.90;;;;;;5044166;28;20552;-63
2024/01/08 06:00:57;;;;;;;7.70;4.30;;;-0.30;99.90;;;;;;5045433;28;20174;-63
2024/01/08 06:03:22;;;;;;;8.17;3.60;;;-0.20;99.90;;;;;;5029837;28;20033;-64
2024/01/08 06:05:49;;;;;;;6.93;3.93;;;-0.30;99.90;;;;;;5027633;28;20055;-63
2024/01/08 06:08:15;;;;;;;6.07;3.50;;;-0.30;99.90;;;;;;5037722;28;20041;-64
2024/01/08 06:10:40;;;;;;;8.33;3.83;;;-0.30;99.90;;;;;;5009333;28;20296;-64
2024/01/08 06:13:08;;;;;;;6.03;3.83;;;-0.40;99.90;;;;;;5045893;28;20148;-63
2024/01/08 06:15:34;;;;;;;8.33;4.27;;;-0.40;99.90;;;;;;5047135;28;20658;-63
2024/01/08 06:18:00;;;;;;;6.57;4.10;;;-0.50;99.90;;;;;;5043537;28;20041;-63
2024/01/08 06:20:26;;;;;;;8.03;4.00;;;-0.50;99.90;;;;;;5045779;28;20486;-63
2024/01/08 06:22:51;;;;;;;6.07;3.93;;;-0.50;99.90;;;;;;5041179;28;20041;-63
2024/01/08 06:25:18;;;;;;;8.40;4.27;;;-0.50;99.90;;;;;;5028071;28;20041;-63
2024/01/08 06:27:43;;;;;;;10.57;4.70;;;-0.50;99.90;;;;;;5048942;28;20041;-63
2024/01/08 06:30:10;;;;;;;6.63;3.73;;;-0.60;99.90;;;;;;5043075;28;20045;-63
2024/01/08 06:32:35;;;;;;;11.03;4.23;;;-0.50;99.90;;;;;;5024292;28;20037;-63
2024/01/08 06:35:02;;;;;;;7.47;3.77;;;-0.60;99.90;;;;;;5047432;28;20379;-63
2024/01/08 06:37:31;;;;;;;8.97;4.40;;;-0.60;99.90;;;;;;5025875;28;20044;-64
2024/01/08 06:39:57;;;;;;;6.93;3.60;;;-0.60;99.90;;;;;;5041510;28;20564;-63
2024/01/08 06:42:23;;;;;;;10.27;5.43;;;-0.60;99.90;;;;;;5047168;28;20044;-64
2024/01/08 06:44:49;;;;;;;8.87;3.73;;;-0.60;99.90;;;;;;5046161;28;20121;-64
2024/01/08 06:47:15;;;;;;;8.90;4.13;;;-0.60;99.90;;;;;;5042203;28;20114;-64
2024/01/08 06:49:44;;;;;;;10.43;4.57;;;-0.60;99.90;;;;;;5040345;28;20494;-64
2024/01/08 06:52:10;;;;;;;9.73;4.00;;;-0.60;99.90;;;;;;5029912;28;20489;-62
2024/01/08 06:54:35;;;;;;;6.03;3.87;;;-0.60;99.90;;;;;;5043789;28;20045;-64
2024/01/08 06:57:02;;;;;;;8.47;4.30;;;-0.70;99.90;;;;;;5025286;28;20064;-63
2024/01/08 06:59:31;;;;;;;9.70;4.40;;;-0.70;99.90;;;;;;5045113;28;20049;-64
2024/01/08 07:01:57;;;;;;;9.40;4.23;;;-0.70;99.90;;;;;;5038463;28;20029;-63
2024/01/08 07:04:22;;;;;;;10.70;4.50;;;-0.70;99.90;;;;;;5041920;28;20140;-64
2024/01/08 07:06:48;;;;;;;8.40;4.53;;;-0.70;99.90;;;;;;5029265;28;20498;-63
2024/01/08 07:09:14;;;;;;;8.97;4.77;;;-0.70;99.90;;;;;;5025571;28;20048;-63
2024/01/08 07:11:39;;;;;;;8.67;4.27;;;-0.70;99.90;;;;;;5042368;28;20037;-63
2024/01/08 07:14:05;;;;;;;9.50;4.37;;;-0.70;99.90;;;;;;5022117;28;20444;-63
2024/01/08 07:16:31;;;;;;;6.77;3.50;;;-0.70;99.90;;;;;;5011723;28;20619;-63
2024/01/08 07:18:57;;;;;;;10.73;4.40;;;-0.80;99.90;;;;;;5019147;28;20037;-63
2024/01/08 07:21:22;;;;;;;8.83;4.27;;;-0.70;99.90;;;;;;5027026;28;20074;-63
2024/01/08 07:23:50;;;;;;;12.37;4.27;;;-0.80;99.90;;;;;;5040665;28;20052;-64
2024/01/08 07:26:16;;;;;;;7.43;3.83;;;-0.80;99.90;;;;;;5058305;28;20389;-63
2024/01/08 07:28:43;;;;;;;9.13;4.17;;;-0.80;99.90;;;;;;5042589;28;20033;-63
2024/01/08 07:31:12;;;;;;;10.37;3.97;;;-0.80;99.90;;;;;;5024204;28;20099;-63
2024/01/08 07:33:39;;;;;;;7.37;3.90;;;-0.80;99.90;;;;;;5032128;28;20174;-64
2024/01/08 07:36:06;;;;;;;10.90;4.40;;;-0.80;99.90;;;;;;5042705;28;20049;-63
2024/01/08 07:38:31;;;;;;;10.03;4.33;;;-0.80;99.90;;;;;;5039135;28;20045;-63
2024/01/08 07:40:58;;;;;;;9.93;3.70;;;-0.70;99.90;;;;;;5048168;28;20044;-63
2024/01/08 07:43:24;;;;;;;7.13;3.47;;;-0.70;99.90;;;;;;5064421;28;20189;-63
2024/01/08 07:45:51;;;;;;;8.03;4.03;;;-0.70;99.90;;;;;;5042084;28;20120;-64
2024/01/08 07:48:16;;;;;;;8.00;4.00;;;-0.70;99.90;;;;;;5058220;28;20494;-63
2024/01/08 07:50:42;;;;;;;12.10;4.20;;;-0.60;99.90;;;;;;5013804;28;20263;-63
2024/01/08 07:53:11;;;;;;;9.97;3.60;;;-0.50;99.90;;;;;;5039713;28;20056;-63
2024/01/08 07:55:37;;;;;;;7.67;3.60;;;-0.50;99.90;;;;;;5039349;28;20044;-63
2024/01/08 07:58:03;;;;;;;11.53;3.67;;;-0.50;99.90;;;;;;5001054;28;20042;-63
2024/01/08 08:00:29;;;;;;;7.57;3.60;;;-0.50;99.90;;;;;;5028116;28;20481;-62
2024/01/08 08:02:54;;;;;;;11.27;4.00;;;-0.40;99.90;;;;;;5043551;28;20041;-63
2024/01/08 08:05:20;;;;;;;10.03;3.87;;;-0.40;99.90;;;;;;5026127;28;20120;-63
2024/01/08 08:07:46;;;;;;;9.30;3.90;;;-0.40;99.90;;;;;;5040339;28;20548;-64
2024/01/08 08:10:12;;;;;;;10.60;4.30;;;-0.40;99.90;;;;;;5042846;28;20053;-64
2024/01/08 08:12:37;;;;;;;7.40;3.60;;;-0.30;99.90;;;;;;5040345;28;20037;-64
2024/01/08 08:15:04;;;;;;;11.80;3.13;;;-0.30;99.90;;;;;;5023494;28;20041;-63
2024/01/08 08:17:30;;;;;;;9.17;5.03;;;-0.30;99.90;;;;;;5042594;28;20072;-63
2024/01/08 08:19:58;;;;;;;15.17;3.60;;;-0.30;99.90;;;;;;5035963;28;20045;-64
2024/01/08 08:22:24;;;;;;;8.53;3.10;;;-0.30;99.90;;;;;;5042117;28;20041;-64
2024/01/08 08:24:50;;;;;;;7.27;3.80;;;-0.20;99.90;;;;;;5040359;28;20122;-63
2024/01/08 08:27:16;;;;;;;10.90;3.97;;;-0.20;99.90;;;;;;5024325;28;20044;-63
2024/01/08 08:29:45;;;;;;;10.50;3.73;;;-0.20;99.90;;;;;;5024926;28;20049;-63
2024/01/08 08:32:11;;;;;;;8.13;3.83;;;-0.10;99.90;;;;;;5044377;28;20049;-63
2024/01/08 08:34:39;;;;;;;7.83;3.60;;;-0.20;99.90;;;;;;5048436;28;20043;-64
2024/01/08 08:37:08;;;;;;;7.77;3.30;;;-0.10;99.90;;;;;;5046376;28;20514;-64
2024/01/08 08:39:35;;;;;;;7.67;3.80;;;-0.10;99.90;;;;;;5064076;28;20045;-63
2024/01/08 08:42:00;;;;;;;8.33;3.47;;;-0.10;99.90;;;;;;5041230;28;20095;-62
2024/01/08 08:44:26;;;;;;;7.97;3.63;;;-0.10;99.90;;;;;;5046100;28;20040;-65
2024/01/08 08:46:52;;;;;;;9.57;3.40;;;0.00;99.90;;;;;;5044888;28;20068;-62
2024/01/08 08:49:21;;;;;;;6.90;3.17;;;0.00;99.90;;;;;;5043829;28;20503;-63
2024/01/08 08:51:46;;;;;;;8.50;3.07;;;0.00;99.90;;;;;;5041846;28;20083;-63
2024/01/08 08:54:12;;;;;;;10.00;3.47;;;0.10;99.90;;;;;;5029338;28;20049;-62
2024/01/08 08:56:38;;;;;;;9.87;3.50;;;0.10;99.90;;;;;;5030202;28;20103;-63
2024/01/08 08:59:04;;;;;;;9.73;3.30;;;0.10;99.90;;;;;;5044376;28;20544;-65
2024/01/08 09:01:30;;;;;;;5.97;2.90;;;0.10;99.90;;;;;;5046157;28;20044;-63
2024/01/08 09:03:55;;;;;;;7.33;3.07;;;0.20;99.90;;;;;;5013691;28;20044;-63
2024/01/08 09:06:26;;;;;;;8.07;3.03;;;0.20;99.90;;;;;;5039442;28;20068;-63
2024/01/08 09:08:53;;;;;;;11.07;3.53;;;0.20;99.90;;;;;;5037701;28;20033;-64
2024/01/08 09:11:20;;;;;;;6.50;2.93;;;0.20;99.90;;;;;;5038748;28;20738;-64
2024/01/08 09:13:47;;;;;;;5.55;3.40;;;0.30;99.90;;;;;;5039111;28;20277;-66
2024/01/08 09:16:14;;;;;;;7.63;4.37;;;0.30;99.90;;;;;;5041767;28;20048;-63
2024/01/08 09:18:40;;;;;;;8.50;2.92;;;0.30;99.90;;;;;;5025435;28;20036;-63
2024/01/08 09:21:12;;;;;;;8.83;2.80;;;0.40;99.90;;;;;;5026000;28;20049;-63
2024/01/08 09:23:40;;;;;;;8.18;2.78;;;0.40;99.90;;;;;;5044312;28;20043;-64
2024/01/08 09:26:06;;;;;;;7.55;3.20;;;0.40;99.90;;;;;;5040163;28;20045;-66
2024/01/08 09:28:32;;;;;;;7.93;3.17;;;0.50;99.90;;;;;;5041844;28;20256;-63
2024/01/08 09:31:00;;;;;;;12.07;3.00;;;0.50;99.90;;;;;;5025772;28;20051;-63
2024/01/08 09:33:30;;;;;;;8.68;3.30;;;0.50;99.90;;;;;;5043836;28;20520;-64
2024/01/08 09:35:55;;;;;;;5.95;2.80;;;0.50;99.90;;;;;;5043589;28;20056;-63
2024/01/08 09:38:21;;;;;;;5.75;2.80;;;0.60;99.90;;;;;;5023997;28;20049;-63
2024/01/08 09:40:50;;;;;;;7.28;2.80;;;0.60;99.90;;;;;;5028401;28;20041;-66
2024/01/08 09:43:16;;;;;;;5.05;2.40;;;0.60;99.90;;;;;;5048471;28;20048;-64
2024/01/08 09:45:59;;;;;;;6.55;2.22;;;0.60;99.90;;;;;;5046606;28;20041;-63
2024/01/08 09:48:31;;;;;;;7.57;2.75;;;0.70;99.90;;;;;;5041322;28;20123;-64
2024/01/08 09:51:02;;;;;;;6.47;3.03;;;0.70;99.90;;;;;;5044568;28;20452;-65
2024/01/08 09:53:32;;;;;;;8.30;2.88;;;0.70;99.90;;;;;;5043880;28;20037;-63
2024/01/08 09:55:59;;;;;;;7.70;2.50;;;0.70;99.90;;;;;;5043731;28;20231;-63
2024/01/08 09:58:25;;;;;;;9.27;3.20;;;0.70;99.90;;;;;;5044858;28;20040;-63
2024/01/08 10:00:52;;;;;;;6.80;2.58;;;0.80;99.90;;;;;;5046728;28;20124;-63
2024/01/08 10:03:18;;;;;;;4.80;2.42;;;0.80;99.90;;;;;;5028394;28;20044;-65
2024/01/08 10:05:44;;;;;;;8.10;3.03;;;0.80;99.90;;;;;;5024172;28;20055;-62
2024/01/08 10:08:10;;;;;;;7.70;2.78;;;0.80;99.90;;;;;;5009654;28;20074;-63
2024/01/08 10:10:36;;;;;;;5.55;2.58;;;0.80;99.90;;;;;;5039449;28;20049;-63
2024/01/08 10:13:02;;;;;;;5.75;2.50;;;0.80;99.90;;;;;;5045411;28;20053;-64
2024/01/08 10:15:31;;;;;;;8.23;2.83;;;0.80;99.90;;;;;;5044372;28;20379;-64
2024/01/08 10:18:01;;;;;;;7.28;3.35;;;0.70;99.90;;;;;;5043840;28;20319;-65
2024/01/08 10:20:30;;;;;;;5.72;2.88;;;0.70;99.90;;;;;;5043268;28;20052;-63
2024/01/08 10:23:07;;;;;;;6.20;2.58;;;0.70;99.90;;;;;;5041794;28;20452;-62
2024/01/08 10:25:38;;;;;;;5.30;2.47;;;0.70;99.90;;;;;;5026682;28;20114;-62
2024/01/08 10:28:09;;;;;;;5.75;2.58;;;0.70;99.90;;;;;;5037796;28;20030;-65
2024/01/08 10:30:35;;;;;;;7.30;3.28;;;0.70;99.90;;;;;;5044299;28;20052;-62
2024/01/08 10:33:07;;;;;;;7.07;2.40;;;0.70;99.90;;;;;;5041655;28;20483;-63
2024/01/08 10:35:37;;;;;;;6.35;3.17;;;0.80;99.90;;;;;;5030094;28;20051;-63
2024/01/08 10:38:04;;;;;;;9.05;4.72;;;0.80;99.90;;;;;;5041563;28;20059;-64
2024/01/08 10:40:30;;;;;;;14.98;9.13;;;0.80;99.90;;;;;;5044616;28;20459;-66
2024/01/08 10:42:56;;;;;;;15.95;8.68;;;0.80;99.90;;;;;;5040392;28;20045;-63
2024/01/08 10:45:25;;;;;;;12.07;7.00;;;0.80;99.90;;;;;;5038014;28;20037;-62
2024/01/08 10:48:04;;;;;;;8.48;3.45;;;0.80;99.90;;;;;;5038788;28;20048;-63
2024/01/08 10:50:36;;;;;;;6.65;3.10;;;0.80;99.90;;;;;;5042480;28;20049;-64
2024/01/08 10:53:02;;;;;;;7.28;3.60;;;0.90;99.90;;;;;;5038852;28;20080;-63
2024/01/08 10:55:35;;;;;;;7.47;3.83;;;0.90;99.90;;;;;;5022354;28;20499;-63
2024/01/08 10:58:07;;;;;;;6.80;3.28;;;0.90;99.90;;;;;;5041477;28;20128;-63
2024/01/08 11:00:34;;;;;;;6.60;3.13;;;0.90;99.90;;;;;;5040076;28;20045;-63
2024/01/08 11:03:00;;;;;;;7.47;3.03;;;0.90;99.90;;;;;;5045829;28;20064;-66
2024/01/08 11:05:31;;;;;;;8.23;2.90;;;0.90;99.90;;;;;;5042436;28;20040;-63
2024/01/08 11:07:57;;;;;;;6.72;3.10;;;0.90;99.90;;;;;;5045808;28;20470;-63
2024/01/08 11:10:23;;;;;;;7.07;3.17;;;1.00;99.90;;;;;;5046941;28;20082;-63
2024/01/08 11:12:54;;;;;;;7.03;2.70;;;1.00;99.90;;;;;;5043744;28;20049;-64
2024/01/08 11:15:20;;;;;;;6.55;2.65;;;1.00;99.90;;;;;;5045279;28;20084;-65
2024/01/08 11:17:53;;;;;;;5.68;3.15;;;1.10;99.90;;;;;;5043667;28;20045;-63
2024/01/08 11:20:45;;;;;;;7.47;2.83;;;1.00;99.90;;;;;;5039924;28;20152;-63
2024/01/08 11:23:44;;;;;;;7.20;3.15;;;1.00;99.90;;;;;;5034788;28;20111;-65
2024/01/08 11:26:22;;;;;;;5.57;2.72;;;1.00;99.90;;;;;;4982891;28;20103;-63
2024/01/08 11:29:05;;;;;;;5.15;2.92;;;1.00;99.90;;;;;;5034588;28;20037;-65
2024/01/08 11:33:07;;;;;;;8.10;3.00;;;0.90;99.90;;;;;;5036435;27;20129;-63
2024/01/08 11:35:48;;;;;;;5.57;2.67;;;0.90;99.90;;;;;;5051011;27;20053;-65
2024/01/08 11:38:30;;;;;;;5.72;2.38;;;1.00;99.90;;;;;;5046437;27;20041;-63
2024/01/08 11:40:56;;;;;;;4.50;2.72;;;0.90;99.90;;;;;;5056124;27;20059;-63
2024/01/08 11:43:26;;;;;;;9.27;3.22;;;0.90;99.90;;;;;;5049443;28;20082;-63
2024/01/08 11:45:52;;;;;;;5.22;3.10;;;0.80;99.90;;;;;;5064682;27;20048;-64
2024/01/08 11:48:17;;;;;;;5.97;3.47;;;0.90;99.90;;;;;;5044668;27;21027;-63
2024/01/08 11:50:43;;;;;;;5.55;3.08;;;0.90;99.90;;;;;;5053496;27;20079;-62
2024/01/08 11:53:10;;;;;;;3.75;2.53;;;0.90;99.90;;;;;;5042024;27;20507;-62
2024/01/08 11:55:35;;;;;;;5.60;2.97;;;0.90;99.90;;;;;;5042592;27;20053;-62
2024/01/08 11:58:03;;;;;;;8.63;4.18;;;1.00;99.90;;;;;;5048547;27;20075;-62
2024/01/08 12:00:29;;;;;;;6.93;2.90;;;1.00;99.90;;;;;;5044299;28;20407;-64
2024/01/08 12:03:05;;;;;;;6.30;3.35;;;1.00;99.90;;;;;;5053244;27;20056;-62
2024/01/08 12:05:31;;;;;;;5.25;2.97;;;1.00;99.90;;;;;;5046696;28;20495;-62
2024/01/08 12:07:57;;;;;;;6.18;2.55;;;1.10;99.90;;;;;;5034148;27;20052;-62
2024/01/08 12:10:23;;;;;;;7.78;3.40;;;1.10;99.90;;;;;;5043432;28;20041;-62
2024/01/08 12:12:49;;;;;;;8.95;4.45;;;1.10;99.90;;;;;;5053816;27;20227;-64
2024/01/08 12:15:16;;;;;;;5.35;2.90;;;1.10;99.90;;;;;;5067082;28;20036;-62
2024/01/08 12:17:41;;;;;;;5.25;2.78;;;1.20;99.90;;;;;;5051906;27;20390;-62
2024/01/08 12:20:08;;;;;;;5.63;2.75;;;1.20;99.90;;;;;;5046590;27;20055;-62
2024/01/08 12:22:34;;;;;;;5.80;3.05;;;1.20;99.90;;;;;;5035351;28;20060;-62
2024/01/08 12:25:00;;;;;;;5.97;2.88;;;1.10;99.90;;;;;;5045901;27;20055;-62
2024/01/08 12:27:30;;;;;;;8.30;3.13;;;1.20;99.90;;;;;;5052254;28;20044;-64
2024/01/08 12:29:58;;;;;;;5.75;2.90;;;1.10;99.90;;;;;;5049721;27;20071;-62
2024/01/08 12:32:28;;;;;;;7.10;2.92;;;1.10;99.90;;;;;;5049802;28;20045;-62
2024/01/08 12:34:55;;;;;;;6.95;3.40;;;1.00;99.90;;;;;;5041731;27;20215;-62
2024/01/08 12:37:32;;;;;;;5.95;3.15;;;1.00;99.90;;;;;;5047628;27;20044;-62
2024/01/08 12:39:58;;;;;;;6.68;2.63;;;0.90;99.90;;;;;;5049108;28;21847;-65
2024/01/08 12:42:25;;;;;;;5.90;2.83;;;1.00;99.90;;;;;;5041850;27;20066;-62
2024/01/08 12:44:53;;;;;;;8.20;3.38;;;1.10;99.90;;;;;;5035459;27;20507;-62
2024/01/08 12:47:18;;;;;;;7.85;3.08;;;1.20;99.90;;;;;;5032634;28;20038;-62
2024/01/08 12:49:44;;;;;;;5.65;2.83;;;1.30;99.90;;;;;;5034704;27;20050;-61
2024/01/08 12:52:11;;;;;;;7.97;3.45;;;1.40;99.90;;;;;;5028671;27;20049;-65